sensor_id;sensor_type;location;lat;lon;timestamp;temperature;humidity
65291;SHT30;51893;59.754;10.110;2024-02-23T00:01:30;4.42;88.26
65291;SHT30;51893;59.754;10.110;2024-02-23T00:03:58;4.43;88.42
65291;SHT30;51893;59.754;10.110;2024-02-23T00:06:26;4.44;88.55
65291;SHT30;51893;59.754;10.110;2024-02-23T00:08:56;4.45;88.64
65291;SHT30;51893;59.754;10.110;2024-02-23T00:11:24;4.44;88.68
65291;SHT30;51893;59.754;10.110;2024-02-23T00:13:52;4.44;88.76
65291;SHT30;51893;59.754;10.110;2024-02-23T00:16:20;4.42;88.90
65291;SHT30;51893;59.754;10.110;2024-02-23T00:18:49;4.41;88.96
65291;SHT30;51893;59.754;10.110;2024-02-23T00:21:16;4.35;88.99
65291;SHT30;51893;59.754;10.110;2024-02-23T00:23:44;4.33;89.16
65291;SHT30;51893;59.754;10.110;2024-02-23T00:26:12;4.32;89.26
65291;SHT30;51893;59.754;10.110;2024-02-23T00:28:40;4.33;89.29
65291;SHT30;51893;59.754;10.110;2024-02-23T00:31:08;4.34;89.30
65291;SHT30;51893;59.754;10.110;2024-02-23T00:33:36;4.39;89.29
65291;SHT30;51893;59.754;10.110;2024-02-23T00:36:05;4.45;89.22
65291;SHT30;51893;59.754;10.110;2024-02-23T00:38:33;4.47;89.06
65291;SHT30;51893;59.754;10.110;2024-02-23T00:41:02;4.49;88.96
65291;SHT30;51893;59.754;10.110;2024-02-23T00:43:37;4.45;88.90
65291;SHT30;51893;59.754;10.110;2024-02-23T00:46:09;4.42;88.96
65291;SHT30;51893;59.754;10.110;2024-02-23T00:48:37;4.39;89.08
65291;SHT30;51893;59.754;10.110;2024-02-23T00:51:06;4.40;89.12
65291;SHT30;51893;59.754;10.110;2024-02-23T00:53:35;4.42;89.20
65291;SHT30;51893;59.754;10.110;2024-02-23T00:56:03;4.42;89.20
65291;SHT30;51893;59.754;10.110;2024-02-23T00:58:31;4.43;89.23
65291;SHT30;51893;59.754;10.110;2024-02-23T01:01:00;4.44;89.24
65291;SHT30;51893;59.754;10.110;2024-02-23T01:03:28;4.47;89.24
65291;SHT30;51893;59.754;10.110;2024-02-23T01:05:56;4.45;89.18
65291;SHT30;51893;59.754;10.110;2024-02-23T01:08:25;4.39;89.25
65291;SHT30;51893;59.754;10.110;2024-02-23T01:10:53;4.37;89.36
65291;SHT30;51893;59.754;10.110;2024-02-23T01:13:21;4.35;89.47
65291;SHT30;51893;59.754;10.110;2024-02-23T01:15:50;4.37;89.54
65291;SHT30;51893;59.754;10.110;2024-02-23T01:18:18;4.38;89.53
65291;SHT30;51893;59.754;10.110;2024-02-23T01:20:47;4.40;89.51
65291;SHT30;51893;59.754;10.110;2024-02-23T01:23:15;4.41;89.49
65291;SHT30;51893;59.754;10.110;2024-02-23T01:25:43;4.41;89.47
65291;SHT30;51893;59.754;10.110;2024-02-23T01:28:12;4.37;89.48
65291;SHT30;51893;59.754;10.110;2024-02-23T01:30:40;4.39;89.49
65291;SHT30;51893;59.754;10.110;2024-02-23T01:33:08;4.43;89.41
65291;SHT30;51893;59.754;10.110;2024-02-23T01:35:36;4.45;89.38
65291;SHT30;51893;59.754;10.110;2024-02-23T01:38:05;4.46;89.30
65291;SHT30;51893;59.754;10.110;2024-02-23T01:40:33;4.50;89.27
65291;SHT30;51893;59.754;10.110;2024-02-23T01:43:04;4.51;89.15
65291;SHT30;51893;59.754;10.110;2024-02-23T01:45:33;4.50;89.08
65291;SHT30;51893;59.754;10.110;2024-02-23T01:48:01;4.48;89.09
65291;SHT30;51893;59.754;10.110;2024-02-23T01:50:30;4.47;89.09
65291;SHT30;51893;59.754;10.110;2024-02-23T01:53:00;4.46;89.11
65291;SHT30;51893;59.754;10.110;2024-02-23T01:55:31;4.48;89.10
65291;SHT30;51893;59.754;10.110;2024-02-23T01:58:04;4.48;89.16
65291;SHT30;51893;59.754;10.110;2024-02-23T02:00:35;4.47;89.27
65291;SHT30;51893;59.754;10.110;2024-02-23T02:03:04;4.53;89.33
65291;SHT30;51893;59.754;10.110;2024-02-23T02:05:37;4.55;89.26
65291;SHT30;51893;59.754;10.110;2024-02-23T02:08:05;4.57;89.30
65291;SHT30;51893;59.754;10.110;2024-02-23T02:10:34;4.55;89.30
65291;SHT30;51893;59.754;10.110;2024-02-23T02:13:03;4.55;89.33
65291;SHT30;51893;59.754;10.110;2024-02-23T02:15:33;4.57;89.39
65291;SHT30;51893;59.754;10.110;2024-02-23T02:18:01;4.59;89.33
65291;SHT30;51893;59.754;10.110;2024-02-23T02:20:31;4.60;89.40
65291;SHT30;51893;59.754;10.110;2024-02-23T02:23:01;4.70;89.42
65291;SHT30;51893;59.754;10.110;2024-02-23T02:25:35;4.76;89.06
65291;SHT30;51893;59.754;10.110;2024-02-23T02:28:05;4.75;88.87
65291;SHT30;51893;59.754;10.110;2024-02-23T02:30:35;4.74;88.68
65291;SHT30;51893;59.754;10.110;2024-02-23T02:33:03;4.65;88.49
65291;SHT30;51893;59.754;10.110;2024-02-23T02:35:31;4.60;88.43
65291;SHT30;51893;59.754;10.110;2024-02-23T02:37:59;4.55;88.42
65291;SHT30;51893;59.754;10.110;2024-02-23T02:40:27;4.52;88.60
65291;SHT30;51893;59.754;10.110;2024-02-23T02:42:55;4.51;88.59
65291;SHT30;51893;59.754;10.110;2024-02-23T02:45:23;4.51;88.52
65291;SHT30;51893;59.754;10.110;2024-02-23T02:47:53;4.55;88.62
65291;SHT30;51893;59.754;10.110;2024-02-23T02:50:23;4.53;88.50
65291;SHT30;51893;59.754;10.110;2024-02-23T02:52:53;4.54;88.51
65291;SHT30;51893;59.754;10.110;2024-02-23T02:55:21;4.50;88.51
65291;SHT30;51893;59.754;10.110;2024-02-23T02:57:49;4.48;88.69
65291;SHT30;51893;59.754;10.110;2024-02-23T03:00:17;4.48;88.80
65291;SHT30;51893;59.754;10.110;2024-02-23T03:02:45;4.49;88.80
65291;SHT30;51893;59.754;10.110;2024-02-23T03:05:13;4.49;88.86
65291;SHT30;51893;59.754;10.110;2024-02-23T03:07:41;4.48;88.88
65291;SHT30;51893;59.754;10.110;2024-02-23T03:10:09;4.48;88.90
65291;SHT30;51893;59.754;10.110;2024-02-23T03:12:37;4.49;88.90
65291;SHT30;51893;59.754;10.110;2024-02-23T03:15:05;4.47;88.87
65291;SHT30;51893;59.754;10.110;2024-02-23T03:17:33;4.43;88.93
65291;SHT30;51893;59.754;10.110;2024-02-23T03:20:02;4.42;89.08
65291;SHT30;51893;59.754;10.110;2024-02-23T03:22:39;4.40;89.05
65291;SHT30;51893;59.754;10.110;2024-02-23T03:25:07;4.40;89.10
65291;SHT30;51893;59.754;10.110;2024-02-23T03:27:36;4.41;89.12
65291;SHT30;51893;59.754;10.110;2024-02-23T03:30:06;4.41;89.19
65291;SHT30;51893;59.754;10.110;2024-02-23T03:32:36;4.41;89.13
65291;SHT30;51893;59.754;10.110;2024-02-23T03:35:05;4.39;89.13
65291;SHT30;51893;59.754;10.110;2024-02-23T03:37:36;4.39;89.19
65291;SHT30;51893;59.754;10.110;2024-02-23T03:40:07;4.40;89.20
65291;SHT30;51893;59.754;10.110;2024-02-23T03:42:37;4.41;89.11
65291;SHT30;51893;59.754;10.110;2024-02-23T03:45:06;4.42;89.19
65291;SHT30;51893;59.754;10.110;2024-02-23T03:47:34;4.41;89.21
65291;SHT30;51893;59.754;10.110;2024-02-23T03:50:03;4.38;89.28
65291;SHT30;51893;59.754;10.110;2024-02-23T03:52:33;4.39;89.33
65291;SHT30;51893;59.754;10.110;2024-02-23T03:55:01;4.39;89.38
65291;SHT30;51893;59.754;10.110;2024-02-23T03:57:31;4.39;89.31
65291;SHT30;51893;59.754;10.110;2024-02-23T03:59:59;4.37;89.30
65291;SHT30;51893;59.754;10.110;2024-02-23T04:02:29;4.36;89.33
65291;SHT30;51893;59.754;10.110;2024-02-23T04:04:57;4.36;89.30
65291;SHT30;51893;59.754;10.110;2024-02-23T04:07:25;4.38;89.19
65291;SHT30;51893;59.754;10.110;2024-02-23T04:09:54;4.39;89.07
65291;SHT30;51893;59.754;10.110;2024-02-23T04:12:22;4.42;88.93
65291;SHT30;51893;59.754;10.110;2024-02-23T04:14:51;4.40;88.86
65291;SHT30;51893;59.754;10.110;2024-02-23T04:17:20;4.41;88.88
65291;SHT30;51893;59.754;10.110;2024-02-23T04:19:48;4.44;88.90
65291;SHT30;51893;59.754;10.110;2024-02-23T04:22:17;4.45;88.88
65291;SHT30;51893;59.754;10.110;2024-02-23T04:24:45;4.46;88.90
65291;SHT30;51893;59.754;10.110;2024-02-23T04:27:14;4.44;88.90
65291;SHT30;51893;59.754;10.110;2024-02-23T04:29:42;4.42;88.90
65291;SHT30;51893;59.754;10.110;2024-02-23T04:32:10;4.40;88.91
65291;SHT30;51893;59.754;10.110;2024-02-23T04:34:38;4.38;88.90
65291;SHT30;51893;59.754;10.110;2024-02-23T04:37:07;4.36;88.83
65291;SHT30;51893;59.754;10.110;2024-02-23T04:39:35;4.33;88.82
65291;SHT30;51893;59.754;10.110;2024-02-23T04:42:05;4.30;88.80
65291;SHT30;51893;59.754;10.110;2024-02-23T04:44:36;4.27;88.80
65291;SHT30;51893;59.754;10.110;2024-02-23T04:47:04;4.27;88.72
65291;SHT30;51893;59.754;10.110;2024-02-23T04:49:32;4.26;88.62
65291;SHT30;51893;59.754;10.110;2024-02-23T04:52:01;4.26;88.55
65291;SHT30;51893;59.754;10.110;2024-02-23T04:54:29;4.22;88.35
65291;SHT30;51893;59.754;10.110;2024-02-23T04:56:56;4.18;88.24
65291;SHT30;51893;59.754;10.110;2024-02-23T04:59:24;4.14;88.06
65291;SHT30;51893;59.754;10.110;2024-02-23T05:01:53;4.09;87.92
65291;SHT30;51893;59.754;10.110;2024-02-23T05:04:22;4.05;87.85
65291;SHT30;51893;59.754;10.110;2024-02-23T05:06:51;3.99;87.73
65291;SHT30;51893;59.754;10.110;2024-02-23T05:09:19;3.91;87.57
65291;SHT30;51893;59.754;10.110;2024-02-23T05:11:48;3.86;87.54
65291;SHT30;51893;59.754;10.110;2024-02-23T05:14:16;3.83;87.48
65291;SHT30;51893;59.754;10.110;2024-02-23T05:16:44;3.80;87.42
65291;SHT30;51893;59.754;10.110;2024-02-23T05:19:12;3.74;87.37
65291;SHT30;51893;59.754;10.110;2024-02-23T05:21:41;3.70;87.34
65291;SHT30;51893;59.754;10.110;2024-02-23T05:24:10;3.67;87.32
65291;SHT30;51893;59.754;10.110;2024-02-23T05:26:39;3.66;87.25
65291;SHT30;51893;59.754;10.110;2024-02-23T05:29:08;3.65;87.24
65291;SHT30;51893;59.754;10.110;2024-02-23T05:31:43;3.61;87.20
65291;SHT30;51893;59.754;10.110;2024-02-23T05:34:15;3.56;87.20
65291;SHT30;51893;59.754;10.110;2024-02-23T05:36:43;3.50;87.20
65291;SHT30;51893;59.754;10.110;2024-02-23T05:39:13;3.48;87.28
65291;SHT30;51893;59.754;10.110;2024-02-23T05:41:43;3.46;87.30
65291;SHT30;51893;59.754;10.110;2024-02-23T05:44:12;3.42;87.35
65291;SHT30;51893;59.754;10.110;2024-02-23T05:46:42;3.39;87.40
65291;SHT30;51893;59.754;10.110;2024-02-23T05:49:12;3.32;87.46
65291;SHT30;51893;59.754;10.110;2024-02-23T05:51:40;3.21;87.58
65291;SHT30;51893;59.754;10.110;2024-02-23T05:54:08;3.13;87.71
65291;SHT30;51893;59.754;10.110;2024-02-23T05:56:37;3.09;87.79
65291;SHT30;51893;59.754;10.110;2024-02-23T05:59:05;3.06;87.81
65291;SHT30;51893;59.754;10.110;2024-02-23T06:01:35;3.05;87.91
65291;SHT30;51893;59.754;10.110;2024-02-23T06:04:03;3.00;87.94
65291;SHT30;51893;59.754;10.110;2024-02-23T06:06:33;2.99;88.00
65291;SHT30;51893;59.754;10.110;2024-02-23T06:09:01;2.99;88.06
65291;SHT30;51893;59.754;10.110;2024-02-23T06:11:31;3.00;88.10
65291;SHT30;51893;59.754;10.110;2024-02-23T06:13:59;3.03;88.16
65291;SHT30;51893;59.754;10.110;2024-02-23T06:16:27;3.02;88.17
65291;SHT30;51893;59.754;10.110;2024-02-23T06:18:55;2.99;88.20
65291;SHT30;51893;59.754;10.110;2024-02-23T06:21:25;2.99;88.25
65291;SHT30;51893;59.754;10.110;2024-02-23T06:23:53;2.99;88.30
65291;SHT30;51893;59.754;10.110;2024-02-23T06:26:21;2.99;88.35
65291;SHT30;51893;59.754;10.110;2024-02-23T06:28:49;3.05;88.43
65291;SHT30;51893;59.754;10.110;2024-02-23T06:31:18;3.10;88.50
65291;SHT30;51893;59.754;10.110;2024-02-23T06:33:46;3.10;88.49
65291;SHT30;51893;59.754;10.110;2024-02-23T06:36:17;3.07;88.53
65291;SHT30;51893;59.754;10.110;2024-02-23T06:38:46;3.07;88.58
65291;SHT30;51893;59.754;10.110;2024-02-23T06:41:15;3.08;88.66
65291;SHT30;51893;59.754;10.110;2024-02-23T06:43:44;3.12;88.69
65291;SHT30;51893;59.754;10.110;2024-02-23T06:46:14;3.16;88.71
65291;SHT30;51893;59.754;10.110;2024-02-23T06:48:45;3.19;88.74
65291;SHT30;51893;59.754;10.110;2024-02-23T06:51:13;3.25;88.79
65291;SHT30;51893;59.754;10.110;2024-02-23T06:53:43;3.23;88.70
65291;SHT30;51893;59.754;10.110;2024-02-23T06:56:13;3.24;88.72
65291;SHT30;51893;59.754;10.110;2024-02-23T06:58:42;3.31;88.77
65291;SHT30;51893;59.754;10.110;2024-02-23T07:01:10;3.40;88.72
65291;SHT30;51893;59.754;10.110;2024-02-23T07:03:41;3.47;88.61
65291;SHT30;51893;59.754;10.110;2024-02-23T07:06:11;3.52;88.51
65291;SHT30;51893;59.754;10.110;2024-02-23T07:08:39;3.54;88.41
65291;SHT30;51893;59.754;10.110;2024-02-23T07:11:08;3.56;88.32
65291;SHT30;51893;59.754;10.110;2024-02-23T07:13:36;3.55;88.29
65291;SHT30;51893;59.754;10.110;2024-02-23T07:16:04;3.58;88.30
65291;SHT30;51893;59.754;10.110;2024-02-23T07:18:33;3.61;88.26
65291;SHT30;51893;59.754;10.110;2024-02-23T07:21:03;3.62;88.21
65291;SHT30;51893;59.754;10.110;2024-02-23T07:23:31;3.64;88.20
65291;SHT30;51893;59.754;10.110;2024-02-23T07:25:59;3.70;88.22
65291;SHT30;51893;59.754;10.110;2024-02-23T07:28:27;3.82;88.19
65291;SHT30;51893;59.754;10.110;2024-02-23T07:30:56;3.91;87.98
65291;SHT30;51893;59.754;10.110;2024-02-23T07:33:24;3.98;87.79
65291;SHT30;51893;59.754;10.110;2024-02-23T07:35:52;4.03;87.78
65291;SHT30;51893;59.754;10.110;2024-02-23T07:38:21;4.04;87.80
65291;SHT30;51893;59.754;10.110;2024-02-23T07:40:49;4.00;87.84
65291;SHT30;51893;59.754;10.110;2024-02-23T07:43:17;4.03;87.90
65291;SHT30;51893;59.754;10.110;2024-02-23T07:45:46;4.02;87.93
65291;SHT30;51893;59.754;10.110;2024-02-23T07:48:15;4.03;88.03
65291;SHT30;51893;59.754;10.110;2024-02-23T07:50:43;4.03;88.00
65291;SHT30;51893;59.754;10.110;2024-02-23T07:53:12;3.95;87.93
65291;SHT30;51893;59.754;10.110;2024-02-23T07:55:40;3.92;87.90
65291;SHT30;51893;59.754;10.110;2024-02-23T07:58:09;3.92;88.04
65291;SHT30;51893;59.754;10.110;2024-02-23T08:00:37;3.93;88.12
65291;SHT30;51893;59.754;10.110;2024-02-23T08:03:06;3.93;88.18
65291;SHT30;51893;59.754;10.110;2024-02-23T08:05:36;3.95;88.25
65291;SHT30;51893;59.754;10.110;2024-02-23T08:08:06;3.99;88.28
65291;SHT30;51893;59.754;10.110;2024-02-23T08:10:34;4.05;88.28
65291;SHT30;51893;59.754;10.110;2024-02-23T08:13:05;4.11;88.24
65291;SHT30;51893;59.754;10.110;2024-02-23T08:15:33;4.19;88.14
65291;SHT30;51893;59.754;10.110;2024-02-23T08:18:04;4.20;88.03
65291;SHT30;51893;59.754;10.110;2024-02-23T08:20:32;4.19;88.01
65291;SHT30;51893;59.754;10.110;2024-02-23T08:23:01;4.21;88.02
65291;SHT30;51893;59.754;10.110;2024-02-23T08:25:30;4.20;88.00
65291;SHT30;51893;59.754;10.110;2024-02-23T08:27:58;4.19;87.99
65291;SHT30;51893;59.754;10.110;2024-02-23T08:30:27;4.20;87.97
65291;SHT30;51893;59.754;10.110;2024-02-23T08:32:55;4.21;88.00
65291;SHT30;51893;59.754;10.110;2024-02-23T08:35:24;4.25;88.01
65291;SHT30;51893;59.754;10.110;2024-02-23T08:37:52;4.32;88.00
65291;SHT30;51893;59.754;10.110;2024-02-23T08:40:20;4.35;87.90
65291;SHT30;51893;59.754;10.110;2024-02-23T08:42:48;4.40;87.86
65291;SHT30;51893;59.754;10.110;2024-02-23T08:45:17;4.43;87.79
65291;SHT30;51893;59.754;10.110;2024-02-23T08:47:46;4.44;87.72
65291;SHT30;51893;59.754;10.110;2024-02-23T08:50:14;4.39;87.70
65291;SHT30;51893;59.754;10.110;2024-02-23T08:52:44;4.42;87.74
65291;SHT30;51893;59.754;10.110;2024-02-23T08:55:12;4.49;87.72
65291;SHT30;51893;59.754;10.110;2024-02-23T08:57:41;4.53;87.67
65291;SHT30;51893;59.754;10.110;2024-02-23T09:00:09;4.55;87.60
65291;SHT30;51893;59.754;10.110;2024-02-23T09:02:41;4.60;87.61
65291;SHT30;51893;59.754;10.110;2024-02-23T09:05:10;4.64;87.60
65291;SHT30;51893;59.754;10.110;2024-02-23T09:07:38;4.66;87.55
65291;SHT30;51893;59.754;10.110;2024-02-23T09:10:07;4.62;87.53
65291;SHT30;51893;59.754;10.110;2024-02-23T09:12:36;4.58;87.54
65291;SHT30;51893;59.754;10.110;2024-02-23T09:15:04;4.59;87.56
65291;SHT30;51893;59.754;10.110;2024-02-23T09:17:33;4.59;87.56
65291;SHT30;51893;59.754;10.110;2024-02-23T09:20:02;4.58;87.50
65291;SHT30;51893;59.754;10.110;2024-02-23T09:22:31;4.61;87.45
65291;SHT30;51893;59.754;10.110;2024-02-23T09:24:59;4.59;87.33
65291;SHT30;51893;59.754;10.110;2024-02-23T09:27:27;4.58;87.29
65291;SHT30;51893;59.754;10.110;2024-02-23T09:29:55;4.59;87.24
65291;SHT30;51893;59.754;10.110;2024-02-23T09:32:23;4.60;87.19
65291;SHT30;51893;59.754;10.110;2024-02-23T09:34:51;4.65;87.13
65291;SHT30;51893;59.754;10.110;2024-02-23T09:37:19;4.71;87.03
65291;SHT30;51893;59.754;10.110;2024-02-23T09:39:49;4.76;86.92
65291;SHT30;51893;59.754;10.110;2024-02-23T09:42:17;4.78;86.89
65291;SHT30;51893;59.754;10.110;2024-02-23T09:44:52;4.80;86.94
65291;SHT30;51893;59.754;10.110;2024-02-23T09:47:28;4.83;87.04
65291;SHT30;51893;59.754;10.110;2024-02-23T09:49:57;4.86;87.07
65291;SHT30;51893;59.754;10.110;2024-02-23T09:52:28;4.86;87.04
65291;SHT30;51893;59.754;10.110;2024-02-23T09:54:59;4.85;87.11
65291;SHT30;51893;59.754;10.110;2024-02-23T09:57:27;4.85;87.20
65291;SHT30;51893;59.754;10.110;2024-02-23T09:59:55;4.86;87.19
65291;SHT30;51893;59.754;10.110;2024-02-23T10:02:23;4.91;87.14
65291;SHT30;51893;59.754;10.110;2024-02-23T10:04:52;4.93;87.09
65291;SHT30;51893;59.754;10.110;2024-02-23T10:07:25;4.98;87.02
65291;SHT30;51893;59.754;10.110;2024-02-23T10:09:53;5.00;87.00
65291;SHT30;51893;59.754;10.110;2024-02-23T10:12:23;5.10;86.97
65291;SHT30;51893;59.754;10.110;2024-02-23T10:14:51;5.09;86.90
65291;SHT30;51893;59.754;10.110;2024-02-23T10:17:20;5.07;86.96
65291;SHT30;51893;59.754;10.110;2024-02-23T10:19:49;5.06;86.97
65291;SHT30;51893;59.754;10.110;2024-02-23T10:22:17;4.98;86.64
65291;SHT30;51893;59.754;10.110;2024-02-23T10:24:45;4.91;86.57
65291;SHT30;51893;59.754;10.110;2024-02-23T10:27:14;4.90;86.68
65291;SHT30;51893;59.754;10.110;2024-02-23T10:29:41;4.93;86.67
65291;SHT30;51893;59.754;10.110;2024-02-23T10:32:14;4.86;86.50
65291;SHT30;51893;59.754;10.110;2024-02-23T10:34:44;4.81;86.54
65291;SHT30;51893;59.754;10.110;2024-02-23T10:37:18;4.80;86.63
65291;SHT30;51893;59.754;10.110;2024-02-23T10:39:47;4.82;86.62
65291;SHT30;51893;59.754;10.110;2024-02-23T10:42:19;4.82;86.49
65291;SHT30;51893;59.754;10.110;2024-02-23T10:44:53;4.72;86.20
65291;SHT30;51893;59.754;10.110;2024-02-23T10:47:22;4.60;86.23
65291;SHT30;51893;59.754;10.110;2024-02-23T10:49:52;4.49;86.13
65291;SHT30;51893;59.754;10.110;2024-02-23T10:52:22;4.40;86.29
65291;SHT30;51893;59.754;10.110;2024-02-23T10:54:55;4.40;86.45
65291;SHT30;51893;59.754;10.110;2024-02-23T10:57:25;4.33;86.51
65291;SHT30;51893;59.754;10.110;2024-02-23T10:59:54;4.31;86.67
65291;SHT30;51893;59.754;10.110;2024-02-23T11:02:22;4.27;86.78
65291;SHT30;51893;59.754;10.110;2024-02-23T11:04:53;4.25;86.93
65291;SHT30;51893;59.754;10.110;2024-02-23T11:07:25;4.25;86.98
65291;SHT30;51893;59.754;10.110;2024-02-23T11:09:59;4.23;87.01
65291;SHT30;51893;59.754;10.110;2024-02-23T11:12:29;4.25;87.10
65291;SHT30;51893;59.754;10.110;2024-02-23T11:14:57;4.31;87.17
65291;SHT30;51893;59.754;10.110;2024-02-23T11:17:28;4.42;87.15
65291;SHT30;51893;59.754;10.110;2024-02-23T11:20:02;4.52;87.04
65291;SHT30;51893;59.754;10.110;2024-02-23T11:22:34;4.58;86.90
65291;SHT30;51893;59.754;10.110;2024-02-23T11:25:07;4.65;86.89
65291;SHT30;51893;59.754;10.110;2024-02-23T11:27:38;4.71;86.90
65291;SHT30;51893;59.754;10.110;2024-02-23T11:30:10;4.79;86.83
65291;SHT30;51893;59.754;10.110;2024-02-23T11:32:43;4.83;86.75
65291;SHT30;51893;59.754;10.110;2024-02-23T11:35:22;4.85;86.70
65291;SHT30;51893;59.754;10.110;2024-02-23T11:37:55;4.88;86.64
65291;SHT30;51893;59.754;10.110;2024-02-23T11:40:29;4.93;86.62
65291;SHT30;51893;59.754;10.110;2024-02-23T11:42:58;5.03;86.70
65291;SHT30;51893;59.754;10.110;2024-02-23T11:45:28;5.11;86.56
65291;SHT30;51893;59.754;10.110;2024-02-23T11:47:58;5.18;86.50
65291;SHT30;51893;59.754;10.110;2024-02-23T11:50:28;5.27;86.40
65291;SHT30;51893;59.754;10.110;2024-02-23T11:52:56;5.38;86.24
65291;SHT30;51893;59.754;10.110;2024-02-23T11:55:25;5.41;86.12
65291;SHT30;51893;59.754;10.110;2024-02-23T11:57:54;5.35;85.98
65291;SHT30;51893;59.754;10.110;2024-02-23T12:00:34;5.31;86.06
65291;SHT30;51893;59.754;10.110;2024-02-23T12:03:06;5.31;86.16
65291;SHT30;51893;59.754;10.110;2024-02-23T12:05:40;5.33;86.06
65291;SHT30;51893;59.754;10.110;2024-02-23T12:08:08;5.36;86.03
65291;SHT30;51893;59.754;10.110;2024-02-23T12:10:36;5.42;85.85
65291;SHT30;51893;59.754;10.110;2024-02-23T12:13:05;5.39;85.67
65291;SHT30;51893;59.754;10.110;2024-02-23T12:15:33;5.34;85.63
65291;SHT30;51893;59.754;10.110;2024-02-23T12:18:03;5.31;85.69
65291;SHT30;51893;59.754;10.110;2024-02-23T12:20:35;5.35;85.58
65291;SHT30;51893;59.754;10.110;2024-02-23T12:23:04;5.33;85.34
65291;SHT30;51893;59.754;10.110;2024-02-23T12:25:32;5.26;85.24
65291;SHT30;51893;59.754;10.110;2024-02-23T12:28:01;5.16;85.20
65291;SHT30;51893;59.754;10.110;2024-02-23T12:30:31;5.06;85.20
65291;SHT30;51893;59.754;10.110;2024-02-23T12:33:04;5.00;85.36
65291;SHT30;51893;59.754;10.110;2024-02-23T12:35:36;5.02;85.43
65291;SHT30;51893;59.754;10.110;2024-02-23T12:38:04;5.05;85.53
65291;SHT30;51893;59.754;10.110;2024-02-23T12:40:32;5.06;85.54
65291;SHT30;51893;59.754;10.110;2024-02-23T12:43:00;5.06;85.62
65291;SHT30;51893;59.754;10.110;2024-02-23T12:45:29;5.12;85.70
65291;SHT30;51893;59.754;10.110;2024-02-23T12:47:58;5.18;85.63
65291;SHT30;51893;59.754;10.110;2024-02-23T12:50:29;5.18;85.50
65291;SHT30;51893;59.754;10.110;2024-02-23T12:52:58;5.10;85.60
65291;SHT30;51893;59.754;10.110;2024-02-23T12:55:28;5.05;85.62
65291;SHT30;51893;59.754;10.110;2024-02-23T12:57:56;5.05;85.63
65291;SHT30;51893;59.754;10.110;2024-02-23T13:00:24;5.00;85.49
65291;SHT30;51893;59.754;10.110;2024-02-23T13:02:52;5.01;84.74
65291;SHT30;51893;59.754;10.110;2024-02-23T13:05:20;5.14;82.15
65291;SHT30;51893;59.754;10.110;2024-02-23T13:07:50;5.30;79.76
65291;SHT30;51893;59.754;10.110;2024-02-23T13:10:18;5.43;76.93
65291;SHT30;51893;59.754;10.110;2024-02-23T13:12:46;5.53;75.94
65291;SHT30;51893;59.754;10.110;2024-02-23T13:15:15;5.59;74.81
65291;SHT30;51893;59.754;10.110;2024-02-23T13:17:48;5.66;73.52
65291;SHT30;51893;59.754;10.110;2024-02-23T13:20:16;5.75;72.71
65291;SHT30;51893;59.754;10.110;2024-02-23T13:22:47;5.77;72.85
65291;SHT30;51893;59.754;10.110;2024-02-23T13:25:14;5.77;72.13
65291;SHT30;51893;59.754;10.110;2024-02-23T13:27:43;5.86;71.37
65291;SHT30;51893;59.754;10.110;2024-02-23T13:30:11;5.94;70.64
65291;SHT30;51893;59.754;10.110;2024-02-23T13:32:40;5.92;71.40
65291;SHT30;51893;59.754;10.110;2024-02-23T13:35:09;5.93;70.91
65291;SHT30;51893;59.754;10.110;2024-02-23T13:37:37;6.06;70.61
65291;SHT30;51893;59.754;10.110;2024-02-23T13:40:05;6.04;70.19
65291;SHT30;51893;59.754;10.110;2024-02-23T13:42:37;5.99;70.06
65291;SHT30;51893;59.754;10.110;2024-02-23T13:45:09;5.99;69.93
65291;SHT30;51893;59.754;10.110;2024-02-23T13:47:40;6.07;69.37
65291;SHT30;51893;59.754;10.110;2024-02-23T13:50:09;6.14;69.17
65291;SHT30;51893;59.754;10.110;2024-02-23T13:52:37;6.17;68.95
65291;SHT30;51893;59.754;10.110;2024-02-23T13:55:05;6.23;68.56
65291;SHT30;51893;59.754;10.110;2024-02-23T13:57:34;6.26;68.59
65291;SHT30;51893;59.754;10.110;2024-02-23T14:00:03;6.30;68.48
65291;SHT30;51893;59.754;10.110;2024-02-23T14:02:35;6.30;69.07
65291;SHT30;51893;59.754;10.110;2024-02-23T14:05:05;6.33;68.37
65291;SHT30;51893;59.754;10.110;2024-02-23T14:07:36;6.41;68.23
65291;SHT30;51893;59.754;10.110;2024-02-23T14:10:04;6.37;68.97
65291;SHT30;51893;59.754;10.110;2024-02-23T14:12:33;6.40;68.73
65291;SHT30;51893;59.754;10.110;2024-02-23T14:15:02;6.46;67.69
65291;SHT30;51893;59.754;10.110;2024-02-23T14:17:30;6.47;67.88
65291;SHT30;51893;59.754;10.110;2024-02-23T14:19:59;6.47;67.88
65291;SHT30;51893;59.754;10.110;2024-02-23T14:22:28;6.44;68.78
65291;SHT30;51893;59.754;10.110;2024-02-23T14:24:57;6.37;69.06
65291;SHT30;51893;59.754;10.110;2024-02-23T14:27:26;6.35;68.36
65291;SHT30;51893;59.754;10.110;2024-02-23T14:29:58;6.36;68.58
65291;SHT30;51893;59.754;10.110;2024-02-23T14:32:27;6.35;67.58
65291;SHT30;51893;59.754;10.110;2024-02-23T14:34:55;6.35;67.52
65291;SHT30;51893;59.754;10.110;2024-02-23T14:37:25;6.31;68.69
65291;SHT30;51893;59.754;10.110;2024-02-23T14:39:55;6.27;68.29
65291;SHT30;51893;59.754;10.110;2024-02-23T14:42:23;6.30;68.57
65291;SHT30;51893;59.754;10.110;2024-02-23T14:44:51;6.31;67.88
65291;SHT30;51893;59.754;10.110;2024-02-23T14:47:19;6.31;68.39
65291;SHT30;51893;59.754;10.110;2024-02-23T14:49:58;6.36;67.14
65291;SHT30;51893;59.754;10.110;2024-02-23T14:52:27;6.39;67.48
65291;SHT30;51893;59.754;10.110;2024-02-23T14:54:55;6.30;68.11
65291;SHT30;51893;59.754;10.110;2024-02-23T14:57:23;6.32;67.55
65291;SHT30;51893;59.754;10.110;2024-02-23T14:59:51;6.34;67.78
65291;SHT30;51893;59.754;10.110;2024-02-23T15:02:21;6.33;68.26
65291;SHT30;51893;59.754;10.110;2024-02-23T15:04:50;6.34;68.30
65291;SHT30;51893;59.754;10.110;2024-02-23T15:07:19;6.27;69.18
65291;SHT30;51893;59.754;10.110;2024-02-23T15:09:47;6.27;67.98
65291;SHT30;51893;59.754;10.110;2024-02-23T15:12:15;6.32;67.88
65291;SHT30;51893;59.754;10.110;2024-02-23T15:14:44;6.32;67.91
65291;SHT30;51893;59.754;10.110;2024-02-23T15:17:12;6.32;67.36
65291;SHT30;51893;59.754;10.110;2024-02-23T15:19:40;6.33;67.55
65291;SHT30;51893;59.754;10.110;2024-02-23T15:22:08;6.33;66.46
65291;SHT30;51893;59.754;10.110;2024-02-23T15:24:41;6.36;66.59
65291;SHT30;51893;59.754;10.110;2024-02-23T15:27:09;6.34;66.71
65291;SHT30;51893;59.754;10.110;2024-02-23T15:29:38;6.34;67.35
65291;SHT30;51893;59.754;10.110;2024-02-23T15:32:06;6.28;67.62
65291;SHT30;51893;59.754;10.110;2024-02-23T15:34:37;6.30;66.14
65291;SHT30;51893;59.754;10.110;2024-02-23T15:37:05;6.32;67.02
65291;SHT30;51893;59.754;10.110;2024-02-23T15:39:34;6.32;67.12
65291;SHT30;51893;59.754;10.110;2024-02-23T15:42:03;6.28;67.08